createdAt,value
2023-03-27T01:44:51.989Z,3.14
2023-03-27T01:59:51.284Z,3.06
2023-03-27T02:29:38.572Z,2.56
2023-03-27T02:44:58.661Z,2.86
2023-03-27T02:59:54.280Z,1.70
2023-03-27T03:14:44.536Z,1.89
2023-03-27T03:29:37.018Z,1.53
2023-03-27T03:44:30.079Z,1.88
2023-03-27T03:59:18.373Z,1.62
2023-03-27T04:14:08.151Z,1.73
2023-03-27T04:28:58.027Z,2.03
2023-03-27T04:43:47.989Z,1.89
2023-03-27T04:58:38.300Z,1.56
2023-03-27T05:13:28.606Z,1.73
2023-03-27T05:28:18.299Z,1.70
2023-03-27T05:43:09.411Z,1.60
2023-03-27T05:57:58.570Z,1.67
2023-03-27T06:12:49.687Z,1.63
2023-03-27T06:27:42.646Z,1.54
2023-03-27T06:42:35.373Z,1.78
2023-03-27T06:57:25.333Z,1.70
2023-03-27T07:12:16.668Z,1.60
2023-03-27T07:27:06.147Z,1.82
2023-03-27T07:41:56.621Z,1.29
2023-03-27T07:56:47.775Z,1.50
2023-03-27T08:11:38.212Z,1.50
2023-03-27T09:11:28.093Z,1.29
2023-03-27T09:26:22.470Z,1.54
2023-03-27T09:41:12.191Z,1.24
2023-03-27T09:56:04.872Z,1.20
2023-03-27T10:10:59.110Z,1.48
2023-03-27T10:25:48.935Z,1.26
2023-03-27T10:40:39.206Z,1.16
2023-03-27T10:55:39.577Z,1.00
2023-03-27T11:10:44.765Z,1.06
2023-03-27T11:40:42.976Z,1.20
2023-03-27T13:10:41.158Z,1.40
2023-03-27T13:25:49.548Z,1.64
2023-03-27T13:40:46.218Z,1.78
2023-03-27T13:55:52.482Z,1.18
2023-03-27T14:11:11.082Z,1.40
2023-03-27T14:26:05.048Z,1.29
2023-03-27T14:40:55.105Z,0.60
2023-03-27T14:55:47.570Z,0.67
2023-03-27T16:25:28.991Z,0.80
2023-03-27T16:40:19.658Z,0.78
2023-03-27T17:10:00.547Z,1.00
2023-03-27T17:24:56.702Z,0.80
2023-03-27T18:54:02.559Z,2.90
2023-03-27T19:08:54.963Z,2.11
2023-03-27T19:23:45.356Z,2.44
2023-03-27T19:38:35.991Z,1.88
2023-03-27T19:53:27.037Z,1.90
2023-03-27T20:08:16.734Z,2.23
2023-03-27T20:23:08.209Z,1.14
2023-03-27T20:38:01.198Z,1.28
2023-03-27T20:52:51.358Z,1.44
2023-03-27T21:07:41.670Z,2.04
2023-03-27T21:22:32.409Z,1.31
2023-03-27T21:37:21.904Z,2.73
2023-03-27T21:52:11.537Z,3.26
2023-03-27T22:07:01.975Z,3.22
2023-03-27T22:21:53.135Z,3.54
2023-03-27T22:36:42.999Z,3.06
2023-03-27T22:51:33.091Z,3.81
2023-03-27T23:06:22.976Z,3.76
2023-03-27T23:36:12.092Z,4.14
2023-03-27T23:51:01.825Z,4.88
